Meteo Giornale » Osservazioni meteo Stati Uniti (USA) » Cedar Rapids
ore: 04:52 - Osservazioni Meteo Cedar Rapids
Lat. 41° 52' N Lon. 91° 43' W Alt. 263 metri s.l.m.
22 °C
Nebbia
Temp. 24 Ore
22 °C
31 °C
Nord
0 Km/h
Dew point 22 °C
Umidità 100 %
Visibilità 2 Km
Il sole sorge alle ore 06:32
Il sole tramonta alle ore 19:40
| Data e Ora | Cielo e Fenomeni | T °C | DP °C | Um. % | Pres. hPa | Vis. km | Vento km/h | |
|---|---|---|---|---|---|---|---|---|
| Oggi h: 04:52 | Nebbia | 22 | 22 | 100 | 1014 | 2 | N 0 | |
| Oggi h: 04:32 | Nebbia | 22 | 22 | 100 | 1014 | 2 | N 0 | |
| Oggi h: 04:23 | Foschia | 22 | 22 | 100 | 1014 | 5 | N 0 | |
| Oggi h: 04:10 | Nebbia | 22 | 22 | 100 | 1014 | 2 | N 0 | |
| Oggi h: 04:04 | Foschia | 22 | 22 | 100 | 1014 | 2 | N 0 | |
| Oggi h: 03:52 | Foschia | 22 | 22 | 100 | 1014 | 5 | N 0 | |
| Oggi h: 03:44 | Foschia | 23 | 23 | 100 | 1014 | 5 | N 0 | |
| Oggi h: 03:19 | Foschia | 23 | 23 | 100 | 1014 | 5 | N 0 | |
| Oggi h: 03:11 | Foschia | 23 | 23 | 100 | 1014 | 2 | N 0 | |
| Oggi h: 02:52 | Foschia | 23 | 23 | 100 | 1014 | 8 | N 5.5 | |
| Oggi h: 02:37 | Foschia | 23 | 23 | 100 | 1014 | 2 | N 5.5 | |
| Oggi h: 02:22 | Foschia | 23 | 23 | 100 | 1014 | 8 | N 0 | |
| Oggi h: 02:12 | Foschia | 24 | 23 | 94 | 1014 | 3 | N 0 | |
| Oggi h: 01:52 | Foschia | 24 | 23 | 94 | 1014 | 8 | N 5.5 | |
| Oggi h: 00:52 | Foschia | 24 | 23 | 94 | 1014 | 10 | S 7.4 | |
| Ieri h: 23:52 | Sereno | 25 | 24 | 94 | 1013 | 13 | N 5.5 | |
| Ieri h: 22:52 | Sereno | 25 | 24 | 94 | 1013 | 11 | N 5.5 | |
| Ieri h: 21:52 | Poco Nuvoloso | 24 | 24 | 100 | 1013 | 11 | N 0 | |
| Ieri h: 20:52 | Sereno | 26 | 24 | 88 | 1013 | 13 | N 0 | |
| Ieri h: 19:52 | Sereno | 26 | 25 | 94 | 1012 | 13 | N 0 | |
| Ieri h: 18:52 | Sereno | 29 | 25 | 79 | 1012 | 14 | S/SO 7.4 | |
| Ieri h: 17:52 | Sereno | 31 | 24 | 66 | 1012 | 14 | S/SO 13 | |
| Ieri h: 16:52 | Sereno | 31 | 24 | 66 | 1012 | 14 | S/SO 11.1 | |
| Ieri h: 15:52 | Sereno | 31 | 24 | 66 | 1012 | 10 | S 11.1 | |
| Ieri h: 14:52 | Poco Nuvoloso | 31 | 23 | 62 | 1012 | 14 | N 5.5 | |
| Ieri h: 13:52 | Sereno | 31 | 23 | 62 | 1012 | 10 | SO 9.3 | |
| Ieri h: 12:52 | Sereno | 31 | 22 | 58 | 1012 | 10 | N 5.5 | |
| Ieri h: 11:52 | Sereno | 30 | 21 | 58 | 1012 | 10 | O/SO 16.7 | |
| Ieri h: 10:52 | Sereno | 29 | 21 | 62 | 1012 | 10 | O/SO 18.5 | |
| Ieri h: 09:52 | Sereno | 27 | 20 | 65 | 1011 | 10 | SO 20.3 | |
| Ieri h: 08:52 | Sereno | 25 | 19 | 69 | 1011 | 10 | S/SO 18.5 | |
| Ieri h: 07:52 | Sereno | 23 | 19 | 78 | 1011 | 10 | S/SO 14.8 | |
| Ieri h: 06:52 | Sereno | 23 | 19 | 78 | 1011 | 10 | S 14.8 | |
| Ieri h: 05:52 | Sereno | 23 | 19 | 78 | 1010 | 10 | S 13 | |



